sensor_id;sensor_type;location;lat;lon;timestamp;P1;durP1;ratioP1;P2;durP2;ratioP2
18780;SDS011;9519;51.890;8.970;2022-12-08T00:01:12;51.87;;;35.77;;
18780;SDS011;9519;51.890;8.970;2022-12-08T00:06:20;49.17;;;34.97;;
18780;SDS011;9519;51.890;8.970;2022-12-08T00:11:44;48.47;;;33.97;;
18780;SDS011;9519;51.890;8.970;2022-12-08T00:16:46;51.50;;;34.30;;
18780;SDS011;9519;51.890;8.970;2022-12-08T00:21:48;53.50;;;34.93;;
18780;SDS011;9519;51.890;8.970;2022-12-08T00:26:54;47.40;;;34.23;;
18780;SDS011;9519;51.890;8.970;2022-12-08T00:31:57;47.20;;;31.53;;
18780;SDS011;9519;51.890;8.970;2022-12-08T00:36:59;45.93;;;32.60;;
18780;SDS011;9519;51.890;8.970;2022-12-08T00:42:02;47.43;;;30.90;;
18780;SDS011;9519;51.890;8.970;2022-12-08T00:47:14;48.00;;;32.50;;
18780;SDS011;9519;51.890;8.970;2022-12-08T00:52:16;46.07;;;31.00;;
18780;SDS011;9519;51.890;8.970;2022-12-08T00:57:21;45.63;;;30.43;;
18780;SDS011;9519;51.890;8.970;2022-12-08T01:02:23;45.67;;;31.83;;
18780;SDS011;9519;51.890;8.970;2022-12-08T01:07:25;46.37;;;31.87;;
18780;SDS011;9519;51.890;8.970;2022-12-08T01:12:29;45.30;;;30.77;;
18780;SDS011;9519;51.890;8.970;2022-12-08T01:17:31;42.47;;;29.73;;
18780;SDS011;9519;51.890;8.970;2022-12-08T01:22:33;47.83;;;31.70;;
18780;SDS011;9519;51.890;8.970;2022-12-08T01:27:37;46.03;;;32.67;;
18780;SDS011;9519;51.890;8.970;2022-12-08T01:32:39;43.13;;;28.80;;
18780;SDS011;9519;51.890;8.970;2022-12-08T01:37:41;45.60;;;30.93;;
18780;SDS011;9519;51.890;8.970;2022-12-08T01:42:44;46.40;;;33.37;;
18780;SDS011;9519;51.890;8.970;2022-12-08T01:47:47;53.50;;;35.30;;
18780;SDS011;9519;51.890;8.970;2022-12-08T01:52:56;52.93;;;35.70;;
18780;SDS011;9519;51.890;8.970;2022-12-08T01:58:05;51.70;;;35.27;;
18780;SDS011;9519;51.890;8.970;2022-12-08T02:03:17;54.77;;;35.40;;
18780;SDS011;9519;51.890;8.970;2022-12-08T02:08:27;64.00;;;38.67;;
18780;SDS011;9519;51.890;8.970;2022-12-08T02:13:33;50.30;;;36.23;;
18780;SDS011;9519;51.890;8.970;2022-12-08T02:18:39;57.40;;;38.63;;
18780;SDS011;9519;51.890;8.970;2022-12-08T02:24:03;53.30;;;35.50;;
18780;SDS011;9519;51.890;8.970;2022-12-08T02:29:26;53.90;;;36.73;;
18780;SDS011;9519;51.890;8.970;2022-12-08T02:35:03;68.60;;;43.40;;
18780;SDS011;9519;51.890;8.970;2022-12-08T02:40:15;81.97;;;48.70;;
18780;SDS011;9519;51.890;8.970;2022-12-08T02:45:26;77.83;;;47.30;;
18780;SDS011;9519;51.890;8.970;2022-12-08T02:50:35;63.80;;;40.90;;
18780;SDS011;9519;51.890;8.970;2022-12-08T02:55:40;60.87;;;39.40;;
18780;SDS011;9519;51.890;8.970;2022-12-08T03:01:00;60.00;;;38.17;;
18780;SDS011;9519;51.890;8.970;2022-12-08T03:06:23;60.43;;;39.23;;
18780;SDS011;9519;51.890;8.970;2022-12-08T03:11:35;57.83;;;38.57;;
18780;SDS011;9519;51.890;8.970;2022-12-08T03:16:46;52.03;;;35.70;;
18780;SDS011;9519;51.890;8.970;2022-12-08T03:21:56;49.67;;;32.83;;
18780;SDS011;9519;51.890;8.970;2022-12-08T03:27:03;44.97;;;31.13;;
18780;SDS011;9519;51.890;8.970;2022-12-08T03:32:12;47.20;;;30.70;;
18780;SDS011;9519;51.890;8.970;2022-12-08T03:37:25;42.23;;;29.20;;
18780;SDS011;9519;51.890;8.970;2022-12-08T03:42:28;43.97;;;29.53;;
18780;SDS011;9519;51.890;8.970;2022-12-08T03:47:30;42.87;;;28.57;;
18780;SDS011;9519;51.890;8.970;2022-12-08T03:52:35;46.07;;;28.90;;
18780;SDS011;9519;51.890;8.970;2022-12-08T03:57:37;46.53;;;31.40;;
18780;SDS011;9519;51.890;8.970;2022-12-08T04:02:40;47.90;;;31.90;;
18780;SDS011;9519;51.890;8.970;2022-12-08T04:07:43;47.80;;;30.37;;
18780;SDS011;9519;51.890;8.970;2022-12-08T04:12:45;47.73;;;31.70;;
18780;SDS011;9519;51.890;8.970;2022-12-08T04:17:47;58.53;;;35.43;;
18780;SDS011;9519;51.890;8.970;2022-12-08T04:22:51;54.90;;;35.70;;
18780;SDS011;9519;51.890;8.970;2022-12-08T04:27:53;52.83;;;34.03;;
18780;SDS011;9519;51.890;8.970;2022-12-08T04:32:55;51.03;;;34.67;;
18780;SDS011;9519;51.890;8.970;2022-12-08T04:37:59;48.30;;;33.37;;
18780;SDS011;9519;51.890;8.970;2022-12-08T04:43:01;50.23;;;32.47;;
18780;SDS011;9519;51.890;8.970;2022-12-08T04:48:03;45.90;;;30.57;;
18780;SDS011;9519;51.890;8.970;2022-12-08T04:53:08;51.53;;;34.20;;
18780;SDS011;9519;51.890;8.970;2022-12-08T04:58:12;47.80;;;33.50;;
18780;SDS011;9519;51.890;8.970;2022-12-08T05:03:16;61.03;;;37.43;;
18780;SDS011;9519;51.890;8.970;2022-12-08T05:08:19;51.50;;;34.60;;
18780;SDS011;9519;51.890;8.970;2022-12-08T05:13:21;48.50;;;33.57;;
18780;SDS011;9519;51.890;8.970;2022-12-08T05:18:23;48.47;;;32.63;;
18780;SDS011;9519;51.890;8.970;2022-12-08T05:23:27;45.73;;;31.27;;
18780;SDS011;9519;51.890;8.970;2022-12-08T05:28:30;41.63;;;29.63;;
18780;SDS011;9519;51.890;8.970;2022-12-08T05:33:32;50.03;;;30.60;;
18780;SDS011;9519;51.890;8.970;2022-12-08T05:38:35;46.37;;;29.37;;
18780;SDS011;9519;51.890;8.970;2022-12-08T05:43:37;40.70;;;27.13;;
18780;SDS011;9519;51.890;8.970;2022-12-08T05:48:39;29.90;;;21.80;;
18780;SDS011;9519;51.890;8.970;2022-12-08T05:53:43;31.63;;;20.73;;
18780;SDS011;9519;51.890;8.970;2022-12-08T05:58:46;28.53;;;20.97;;
18780;SDS011;9519;51.890;8.970;2022-12-08T06:03:49;31.97;;;21.70;;
18780;SDS011;9519;51.890;8.970;2022-12-08T06:08:52;28.53;;;20.73;;
18780;SDS011;9519;51.890;8.970;2022-12-08T06:13:55;30.00;;;21.73;;
18780;SDS011;9519;51.890;8.970;2022-12-08T06:18:58;31.57;;;22.17;;
18780;SDS011;9519;51.890;8.970;2022-12-08T06:24:01;25.13;;;17.60;;
18780;SDS011;9519;51.890;8.970;2022-12-08T06:29:03;20.90;;;15.13;;
18780;SDS011;9519;51.890;8.970;2022-12-08T06:34:05;24.57;;;16.83;;
18780;SDS011;9519;51.890;8.970;2022-12-08T06:39:09;27.07;;;17.90;;
18780;SDS011;9519;51.890;8.970;2022-12-08T06:44:11;22.77;;;16.77;;
18780;SDS011;9519;51.890;8.970;2022-12-08T06:49:13;23.47;;;17.00;;
18780;SDS011;9519;51.890;8.970;2022-12-08T06:54:17;24.33;;;17.83;;
18780;SDS011;9519;51.890;8.970;2022-12-08T06:59:19;26.63;;;18.47;;
18780;SDS011;9519;51.890;8.970;2022-12-08T07:04:21;26.57;;;19.13;;
18780;SDS011;9519;51.890;8.970;2022-12-08T07:09:25;26.13;;;17.33;;
18780;SDS011;9519;51.890;8.970;2022-12-08T07:14:27;29.00;;;18.63;;
18780;SDS011;9519;51.890;8.970;2022-12-08T07:19:29;24.60;;;16.90;;
18780;SDS011;9519;51.890;8.970;2022-12-08T07:24:34;20.73;;;14.83;;
18780;SDS011;9519;51.890;8.970;2022-12-08T07:29:36;22.37;;;15.37;;
18780;SDS011;9519;51.890;8.970;2022-12-08T07:34:38;19.13;;;13.57;;
18780;SDS011;9519;51.890;8.970;2022-12-08T07:39:41;19.13;;;12.57;;
18780;SDS011;9519;51.890;8.970;2022-12-08T07:44:44;16.83;;;12.27;;
18780;SDS011;9519;51.890;8.970;2022-12-08T07:49:46;20.00;;;13.93;;
18780;SDS011;9519;51.890;8.970;2022-12-08T07:54:49;21.13;;;15.20;;
18780;SDS011;9519;51.890;8.970;2022-12-08T07:59:51;26.73;;;17.07;;
18780;SDS011;9519;51.890;8.970;2022-12-08T08:04:54;22.60;;;16.13;;
18780;SDS011;9519;51.890;8.970;2022-12-08T08:09:57;39.53;;;28.77;;
18780;SDS011;9519;51.890;8.970;2022-12-08T08:14:59;25.77;;;18.97;;
18780;SDS011;9519;51.890;8.970;2022-12-08T08:20:03;24.57;;;16.50;;
18780;SDS011;9519;51.890;8.970;2022-12-08T08:25:08;20.07;;;14.27;;
18780;SDS011;9519;51.890;8.970;2022-12-08T08:30:13;19.80;;;14.13;;
18780;SDS011;9519;51.890;8.970;2022-12-08T08:35:16;20.57;;;14.97;;
18780;SDS011;9519;51.890;8.970;2022-12-08T08:40:19;20.07;;;13.60;;
18780;SDS011;9519;51.890;8.970;2022-12-08T08:45:22;19.67;;;13.20;;
18780;SDS011;9519;51.890;8.970;2022-12-08T08:50:24;18.67;;;14.77;;
18780;SDS011;9519;51.890;8.970;2022-12-08T08:55:27;22.60;;;16.07;;
18780;SDS011;9519;51.890;8.970;2022-12-08T09:00:29;16.73;;;10.70;;
18780;SDS011;9519;51.890;8.970;2022-12-08T09:05:31;14.00;;;8.13;;
18780;SDS011;9519;51.890;8.970;2022-12-08T09:10:36;12.47;;;8.77;;
18780;SDS011;9519;51.890;8.970;2022-12-08T09:15:38;10.90;;;7.77;;
18780;SDS011;9519;51.890;8.970;2022-12-08T09:20:41;10.20;;;7.43;;
18780;SDS011;9519;51.890;8.970;2022-12-08T09:25:44;11.53;;;8.03;;
18780;SDS011;9519;51.890;8.970;2022-12-08T09:30:47;11.67;;;8.50;;
18780;SDS011;9519;51.890;8.970;2022-12-08T09:35:50;12.03;;;8.20;;
18780;SDS011;9519;51.890;8.970;2022-12-08T09:40:54;14.37;;;9.93;;
18780;SDS011;9519;51.890;8.970;2022-12-08T09:45:56;12.87;;;9.83;;
18780;SDS011;9519;51.890;8.970;2022-12-08T09:50:59;13.77;;;9.83;;
18780;SDS011;9519;51.890;8.970;2022-12-08T09:56:05;13.13;;;10.10;;
18780;SDS011;9519;51.890;8.970;2022-12-08T10:01:15;14.33;;;9.83;;
18780;SDS011;9519;51.890;8.970;2022-12-08T10:06:20;15.17;;;10.40;;
18780;SDS011;9519;51.890;8.970;2022-12-08T10:11:32;16.50;;;10.87;;
18780;SDS011;9519;51.890;8.970;2022-12-08T10:16:45;15.57;;;11.40;;
18780;SDS011;9519;51.890;8.970;2022-12-08T10:21:52;19.33;;;12.83;;
18780;SDS011;9519;51.890;8.970;2022-12-08T10:26:58;18.50;;;13.40;;
18780;SDS011;9519;51.890;8.970;2022-12-08T10:32:04;27.17;;;19.70;;
18780;SDS011;9519;51.890;8.970;2022-12-08T10:37:16;16.80;;;12.10;;
18780;SDS011;9519;51.890;8.970;2022-12-08T10:42:20;23.80;;;18.30;;
18780;SDS011;9519;51.890;8.970;2022-12-08T10:47:23;17.23;;;12.23;;
18780;SDS011;9519;51.890;8.970;2022-12-08T10:52:28;17.40;;;11.67;;
18780;SDS011;9519;51.890;8.970;2022-12-08T10:57:32;15.63;;;11.13;;
18780;SDS011;9519;51.890;8.970;2022-12-08T11:02:48;14.57;;;10.00;;
18780;SDS011;9519;51.890;8.970;2022-12-08T11:08:00;12.77;;;9.17;;
18780;SDS011;9519;51.890;8.970;2022-12-08T11:13:09;14.87;;;9.60;;
18780;SDS011;9519;51.890;8.970;2022-12-08T11:18:21;13.33;;;9.30;;
18780;SDS011;9519;51.890;8.970;2022-12-08T11:23:28;12.60;;;7.50;;
18780;SDS011;9519;51.890;8.970;2022-12-08T11:28:32;11.77;;;8.20;;
18780;SDS011;9519;51.890;8.970;2022-12-08T11:33:34;12.27;;;9.07;;
18780;SDS011;9519;51.890;8.970;2022-12-08T11:38:38;10.50;;;7.60;;
18780;SDS011;9519;51.890;8.970;2022-12-08T11:43:47;20.50;;;14.40;;
18780;SDS011;9519;51.890;8.970;2022-12-08T11:49:00;12.33;;;8.93;;
18780;SDS011;9519;51.890;8.970;2022-12-08T11:54:12;11.97;;;8.43;;
18780;SDS011;9519;51.890;8.970;2022-12-08T11:59:26;11.67;;;8.93;;
18780;SDS011;9519;51.890;8.970;2022-12-08T12:04:34;12.23;;;8.57;;
18780;SDS011;9519;51.890;8.970;2022-12-08T12:09:45;10.07;;;7.20;;
18780;SDS011;9519;51.890;8.970;2022-12-08T12:15:18;11.20;;;7.73;;
18780;SDS011;9519;51.890;8.970;2022-12-08T12:21:00;11.00;;;7.50;;
18780;SDS011;9519;51.890;8.970;2022-12-08T12:26:15;11.13;;;7.97;;
18780;SDS011;9519;51.890;8.970;2022-12-08T12:31:22;13.63;;;9.57;;
18780;SDS011;9519;51.890;8.970;2022-12-08T12:36:29;39.13;;;22.80;;
18780;SDS011;9519;51.890;8.970;2022-12-08T12:41:34;17.70;;;11.03;;
18780;SDS011;9519;51.890;8.970;2022-12-08T12:46:56;19.87;;;11.60;;
18780;SDS011;9519;51.890;8.970;2022-12-08T12:52:00;40.00;;;24.97;;
18780;SDS011;9519;51.890;8.970;2022-12-08T12:57:14;13.87;;;10.93;;
18780;SDS011;9519;51.890;8.970;2022-12-08T13:02:23;11.53;;;8.53;;
18780;SDS011;9519;51.890;8.970;2022-12-08T13:07:29;12.03;;;7.97;;
18780;SDS011;9519;51.890;8.970;2022-12-08T13:12:34;15.30;;;10.57;;
18780;SDS011;9519;51.890;8.970;2022-12-08T13:17:38;18.80;;;12.80;;
18780;SDS011;9519;51.890;8.970;2022-12-08T13:22:48;11.70;;;8.70;;
18780;SDS011;9519;51.890;8.970;2022-12-08T13:28:16;16.00;;;11.40;;
18780;SDS011;9519;51.890;8.970;2022-12-08T13:33:25;24.23;;;15.47;;
18780;SDS011;9519;51.890;8.970;2022-12-08T13:38:32;11.20;;;8.03;;
18780;SDS011;9519;51.890;8.970;2022-12-08T13:43:40;13.37;;;8.60;;
18780;SDS011;9519;51.890;8.970;2022-12-08T13:48:50;11.13;;;7.30;;
18780;SDS011;9519;51.890;8.970;2022-12-08T13:53:58;14.13;;;8.90;;
18780;SDS011;9519;51.890;8.970;2022-12-08T13:59:06;9.37;;;7.20;;
18780;SDS011;9519;51.890;8.970;2022-12-08T14:04:25;10.60;;;7.00;;
18780;SDS011;9519;51.890;8.970;2022-12-08T14:09:32;9.80;;;7.20;;
18780;SDS011;9519;51.890;8.970;2022-12-08T14:14:37;8.80;;;6.20;;
18780;SDS011;9519;51.890;8.970;2022-12-08T14:19:52;9.63;;;7.30;;
18780;SDS011;9519;51.890;8.970;2022-12-08T14:24:56;10.30;;;7.30;;
18780;SDS011;9519;51.890;8.970;2022-12-08T14:29:59;10.40;;;7.13;;
18780;SDS011;9519;51.890;8.970;2022-12-08T14:35:17;9.13;;;6.70;;
18780;SDS011;9519;51.890;8.970;2022-12-08T14:40:26;9.87;;;6.90;;
18780;SDS011;9519;51.890;8.970;2022-12-08T14:45:33;13.20;;;8.93;;
18780;SDS011;9519;51.890;8.970;2022-12-08T14:50:55;16.53;;;11.47;;
18780;SDS011;9519;51.890;8.970;2022-12-08T14:56:05;16.83;;;12.00;;
18780;SDS011;9519;51.890;8.970;2022-12-08T15:01:16;30.97;;;18.00;;
18780;SDS011;9519;51.890;8.970;2022-12-08T15:06:25;28.97;;;17.43;;
18780;SDS011;9519;51.890;8.970;2022-12-08T15:11:31;16.90;;;11.83;;
18780;SDS011;9519;51.890;8.970;2022-12-08T15:16:42;13.97;;;10.67;;
18780;SDS011;9519;51.890;8.970;2022-12-08T15:21:49;17.93;;;12.80;;
18780;SDS011;9519;51.890;8.970;2022-12-08T15:26:54;13.60;;;10.33;;
18780;SDS011;9519;51.890;8.970;2022-12-08T15:31:57;13.53;;;10.20;;
18780;SDS011;9519;51.890;8.970;2022-12-08T15:37:03;15.77;;;10.60;;
18780;SDS011;9519;51.890;8.970;2022-12-08T15:42:13;11.27;;;7.67;;
18780;SDS011;9519;51.890;8.970;2022-12-08T15:47:16;9.83;;;7.67;;
18780;SDS011;9519;51.890;8.970;2022-12-08T15:52:22;12.13;;;7.80;;
18780;SDS011;9519;51.890;8.970;2022-12-08T15:57:25;11.37;;;8.77;;
18780;SDS011;9519;51.890;8.970;2022-12-08T16:02:32;17.13;;;11.90;;
18780;SDS011;9519;51.890;8.970;2022-12-08T16:07:35;17.00;;;10.80;;
18780;SDS011;9519;51.890;8.970;2022-12-08T16:12:38;20.77;;;14.33;;
18780;SDS011;9519;51.890;8.970;2022-12-08T16:17:57;20.93;;;15.47;;
18780;SDS011;9519;51.890;8.970;2022-12-08T16:23:01;16.83;;;12.60;;
18780;SDS011;9519;51.890;8.970;2022-12-08T16:28:03;39.30;;;25.47;;
18780;SDS011;9519;51.890;8.970;2022-12-08T16:33:05;59.50;;;35.27;;
18780;SDS011;9519;51.890;8.970;2022-12-08T16:38:10;24.63;;;16.90;;
18780;SDS011;9519;51.890;8.970;2022-12-08T16:43:15;25.33;;;16.10;;
18780;SDS011;9519;51.890;8.970;2022-12-08T16:48:17;20.57;;;14.17;;
18780;SDS011;9519;51.890;8.970;2022-12-08T16:53:22;20.13;;;14.33;;
18780;SDS011;9519;51.890;8.970;2022-12-08T16:58:24;46.17;;;30.20;;
18780;SDS011;9519;51.890;8.970;2022-12-08T17:03:27;79.03;;;53.43;;
18780;SDS011;9519;51.890;8.970;2022-12-08T17:08:30;70.33;;;43.73;;
18780;SDS011;9519;51.890;8.970;2022-12-08T17:13:32;28.30;;;21.37;;
18780;SDS011;9519;51.890;8.970;2022-12-08T17:18:35;26.07;;;19.80;;
18780;SDS011;9519;51.890;8.970;2022-12-08T17:23:39;33.57;;;26.73;;
18780;SDS011;9519;51.890;8.970;2022-12-08T17:28:43;29.93;;;22.47;;
18780;SDS011;9519;51.890;8.970;2022-12-08T17:33:46;24.80;;;18.27;;
18780;SDS011;9519;51.890;8.970;2022-12-08T17:38:50;24.40;;;16.70;;
18780;SDS011;9519;51.890;8.970;2022-12-08T17:43:52;26.70;;;18.63;;
18780;SDS011;9519;51.890;8.970;2022-12-08T17:48:54;28.07;;;19.47;;
18780;SDS011;9519;51.890;8.970;2022-12-08T17:53:58;26.43;;;19.50;;
18780;SDS011;9519;51.890;8.970;2022-12-08T17:59:02;27.97;;;20.33;;
18780;SDS011;9519;51.890;8.970;2022-12-08T18:04:06;32.60;;;21.10;;
18780;SDS011;9519;51.890;8.970;2022-12-08T18:09:11;38.03;;;24.03;;
18780;SDS011;9519;51.890;8.970;2022-12-08T18:14:14;34.87;;;24.90;;
18780;SDS011;9519;51.890;8.970;2022-12-08T18:19:17;32.47;;;22.77;;
18780;SDS011;9519;51.890;8.970;2022-12-08T18:24:21;33.60;;;23.33;;
18780;SDS011;9519;51.890;8.970;2022-12-08T18:29:24;32.30;;;23.57;;
18780;SDS011;9519;51.890;8.970;2022-12-08T18:34:27;34.13;;;22.87;;
18780;SDS011;9519;51.890;8.970;2022-12-08T18:39:31;32.20;;;21.27;;
18780;SDS011;9519;51.890;8.970;2022-12-08T18:44:33;33.10;;;22.17;;
18780;SDS011;9519;51.890;8.970;2022-12-08T18:49:35;33.50;;;23.87;;
18780;SDS011;9519;51.890;8.970;2022-12-08T18:54:39;30.63;;;20.63;;
18780;SDS011;9519;51.890;8.970;2022-12-08T18:59:41;39.83;;;26.30;;
18780;SDS011;9519;51.890;8.970;2022-12-08T19:04:43;27.87;;;20.93;;
18780;SDS011;9519;51.890;8.970;2022-12-08T19:09:47;31.37;;;21.90;;
18780;SDS011;9519;51.890;8.970;2022-12-08T19:14:49;32.07;;;21.30;;
18780;SDS011;9519;51.890;8.970;2022-12-08T19:19:51;29.00;;;21.30;;
18780;SDS011;9519;51.890;8.970;2022-12-08T19:24:55;34.13;;;20.67;;
18780;SDS011;9519;51.890;8.970;2022-12-08T19:29:57;26.23;;;17.80;;
18780;SDS011;9519;51.890;8.970;2022-12-08T19:34:59;27.87;;;19.63;;
18780;SDS011;9519;51.890;8.970;2022-12-08T19:40:09;26.50;;;16.30;;
18780;SDS011;9519;51.890;8.970;2022-12-08T19:45:31;28.80;;;16.77;;
18780;SDS011;9519;51.890;8.970;2022-12-08T19:50:38;31.07;;;20.07;;
18780;SDS011;9519;51.890;8.970;2022-12-08T19:55:42;33.70;;;22.30;;
18780;SDS011;9519;51.890;8.970;2022-12-08T20:00:44;31.57;;;21.97;;
18780;SDS011;9519;51.890;8.970;2022-12-08T20:05:48;34.20;;;23.53;;
18780;SDS011;9519;51.890;8.970;2022-12-08T20:10:54;35.63;;;24.37;;
18780;SDS011;9519;51.890;8.970;2022-12-08T20:15:58;35.63;;;24.13;;
18780;SDS011;9519;51.890;8.970;2022-12-08T20:21:00;35.90;;;24.83;;
18780;SDS011;9519;51.890;8.970;2022-12-08T20:26:04;36.00;;;23.23;;
18780;SDS011;9519;51.890;8.970;2022-12-08T20:31:15;40.20;;;25.27;;
18780;SDS011;9519;51.890;8.970;2022-12-08T20:36:19;32.53;;;22.37;;
18780;SDS011;9519;51.890;8.970;2022-12-08T20:41:24;34.83;;;23.33;;
18780;SDS011;9519;51.890;8.970;2022-12-08T20:46:26;35.20;;;22.90;;
18780;SDS011;9519;51.890;8.970;2022-12-08T20:51:31;31.97;;;22.23;;
18780;SDS011;9519;51.890;8.970;2022-12-08T20:56:35;31.93;;;21.00;;
18780;SDS011;9519;51.890;8.970;2022-12-08T21:01:38;33.90;;;21.53;;
18780;SDS011;9519;51.890;8.970;2022-12-08T21:06:40;32.63;;;21.73;;
18780;SDS011;9519;51.890;8.970;2022-12-08T21:11:44;34.33;;;22.07;;
18780;SDS011;9519;51.890;8.970;2022-12-08T21:16:46;36.37;;;23.43;;
18780;SDS011;9519;51.890;8.970;2022-12-08T21:21:49;36.57;;;24.00;;
18780;SDS011;9519;51.890;8.970;2022-12-08T21:26:53;36.50;;;23.13;;
18780;SDS011;9519;51.890;8.970;2022-12-08T21:31:55;37.73;;;24.20;;
18780;SDS011;9519;51.890;8.970;2022-12-08T21:36:59;35.83;;;23.40;;
18780;SDS011;9519;51.890;8.970;2022-12-08T21:42:03;39.80;;;23.60;;
18780;SDS011;9519;51.890;8.970;2022-12-08T21:47:23;38.97;;;25.67;;
18780;SDS011;9519;51.890;8.970;2022-12-08T21:52:25;38.70;;;22.93;;
18780;SDS011;9519;51.890;8.970;2022-12-08T21:57:29;40.27;;;25.27;;
18780;SDS011;9519;51.890;8.970;2022-12-08T22:02:31;37.00;;;24.50;;
18780;SDS011;9519;51.890;8.970;2022-12-08T22:07:35;38.40;;;24.43;;
18780;SDS011;9519;51.890;8.970;2022-12-08T22:12:41;37.57;;;22.77;;
18780;SDS011;9519;51.890;8.970;2022-12-08T22:17:43;38.43;;;24.60;;
18780;SDS011;9519;51.890;8.970;2022-12-08T22:22:45;37.33;;;24.63;;
18780;SDS011;9519;51.890;8.970;2022-12-08T22:27:49;37.03;;;23.83;;
18780;SDS011;9519;51.890;8.970;2022-12-08T22:32:51;37.23;;;24.20;;
18780;SDS011;9519;51.890;8.970;2022-12-08T22:37:53;37.87;;;23.27;;
18780;SDS011;9519;51.890;8.970;2022-12-08T22:42:58;38.27;;;23.60;;
18780;SDS011;9519;51.890;8.970;2022-12-08T22:48:00;38.43;;;23.10;;
18780;SDS011;9519;51.890;8.970;2022-12-08T22:53:02;41.67;;;25.70;;
18780;SDS011;9519;51.890;8.970;2022-12-08T22:58:06;35.37;;;22.87;;
18780;SDS011;9519;51.890;8.970;2022-12-08T23:03:08;36.17;;;22.70;;
18780;SDS011;9519;51.890;8.970;2022-12-08T23:08:11;37.13;;;23.07;;
18780;SDS011;9519;51.890;8.970;2022-12-08T23:13:18;40.93;;;22.73;;
18780;SDS011;9519;51.890;8.970;2022-12-08T23:18:21;35.43;;;22.90;;
18780;SDS011;9519;51.890;8.970;2022-12-08T23:23:23;38.63;;;23.57;;
18780;SDS011;9519;51.890;8.970;2022-12-08T23:28:26;36.03;;;22.53;;
18780;SDS011;9519;51.890;8.970;2022-12-08T23:33:28;35.57;;;22.53;;
18780;SDS011;9519;51.890;8.970;2022-12-08T23:38:31;36.83;;;22.23;;
18780;SDS011;9519;51.890;8.970;2022-12-08T23:43:34;34.20;;;20.77;;
18780;SDS011;9519;51.890;8.970;2022-12-08T23:48:36;31.63;;;19.10;;
18780;SDS011;9519;51.890;8.970;2022-12-08T23:53:38;33.67;;;20.20;;
18780;SDS011;9519;51.890;8.970;2022-12-08T23:58:42;30.43;;;19.27;;
